Time;durP1;ratioP1;P1;durP2;ratioP2;P2;SDS_P1;SDS_P2;PMS_P1;PMS_P2;Temp;Humidity;BMP_temperature;BMP_pressure;BME280_temperature;BME280_humidity;BME280_pressure;Samples;Min_cycle;Max_cycle;Signal;HPM_P1;HPM_P2
2023/03/18 00:01:02;;;;;;;9.87;6.87;;;;;;;;;;5033283;28;20434;-68
2023/03/18 00:03:29;;;;;;;9.20;7.37;;;;;;;;;;5034797;28;20434;-68
2023/03/18 00:06:02;;;;;;;13.03;7.33;;;;;;;;;;5040564;28;20410;-68
2023/03/18 00:08:27;;;;;;;9.43;6.73;;;;;;;;;;5037399;28;20443;-68
2023/03/18 00:10:52;;;;;;;8.87;6.23;;;;;;;;;;5041411;28;20434;-68
2023/03/18 00:13:18;;;;;;;16.03;7.23;;;;;;;;;;5040155;28;20705;-68
2023/03/18 00:15:43;;;;;;;9.00;6.77;;;;;;;;;;5039868;28;20214;-68
2023/03/18 00:18:08;;;;;;;7.90;5.73;;;;;;;;;;5039134;28;20217;-68
2023/03/18 00:20:40;;;;;;;9.63;5.90;;;;;;;;;;5042094;28;20215;-68
2023/03/18 00:23:07;;;;;;;8.50;6.10;;;;;;;;;;5056299;28;20212;-68
2023/03/18 00:25:32;;;;;;;9.93;6.00;;;;;;;;;;5041458;28;21193;-68
2023/03/18 00:27:57;;;;;;;9.47;6.23;;;;;;;;;;5037115;28;20523;-68
2023/03/18 00:30:24;;;;;;;13.10;6.37;;;;;;;;;;5037379;28;20234;-68
2023/03/18 00:32:49;;;;;;;10.50;6.23;;;;;;;;;;5034851;28;20225;-68
2023/03/18 00:35:15;;;;;;;7.40;5.43;;;;;;;;;;5026384;28;20443;-68
2023/03/18 00:37:41;;;;;;;11.43;6.30;;;;;;;;;;5025456;28;20681;-68
2023/03/18 00:40:09;;;;;;;13.73;5.93;;;;;;;;;;5033257;28;20192;-68
2023/03/18 00:42:38;;;;;;;8.60;5.37;;;;;;;;;;5029365;28;20442;-68
2023/03/18 00:45:09;;;;;;;8.37;5.40;;;;;;;;;;5032369;28;20434;-68
2023/03/18 00:47:34;;;;;;;8.23;5.20;;;;;;;;;;5040882;28;20527;-68
2023/03/18 00:50:00;;;;;;;12.63;5.63;;;;;;;;;;5047795;28;20966;-68
2023/03/18 00:52:26;;;;;;;8.03;5.43;;;;;;;;;;5032400;28;20694;-68
2023/03/18 00:54:51;;;;;;;8.20;5.70;;;;;;;;;;5026590;28;20553;-68
2023/03/18 00:57:17;;;;;;;10.20;5.47;;;;;;;;;;5035521;28;20462;-68
2023/03/18 00:59:42;;;;;;;9.60;5.70;;;;;;;;;;5024490;28;20184;-68
2023/03/18 01:02:07;;;;;;;6.80;5.23;;;;;;;;;;5032652;28;20701;-68
2023/03/18 01:04:32;;;;;;;6.30;5.23;;;;;;;;;;5035718;28;20191;-68
2023/03/18 01:06:58;;;;;;;6.77;5.13;;;;;;;;;;5039297;28;20691;-68
2023/03/18 01:09:23;;;;;;;8.70;4.70;;;;;;;;;;5040698;28;20175;-68
2023/03/18 01:11:49;;;;;;;10.50;5.77;;;;;;;;;;5037156;28;20638;-68
2023/03/18 01:14:14;;;;;;;7.63;5.47;;;;;;;;;;5040176;28;20176;-68
2023/03/18 01:16:39;;;;;;;7.47;4.63;;;;;;;;;;5039829;28;20676;-68
2023/03/18 01:19:05;;;;;;;12.03;5.93;;;;;;;;;;5041191;28;20173;-68
2023/03/18 01:21:30;;;;;;;10.60;6.10;;;;;;;;;;5039199;28;20639;-67
2023/03/18 01:23:56;;;;;;;14.03;5.27;;;;;;;;;;5040928;28;20176;-67
2023/03/18 01:26:22;;;;;;;7.63;5.20;;;;;;;;;;5039244;28;20203;-68
2023/03/18 01:28:47;;;;;;;10.73;5.10;;;;;;;;;;5037624;28;20172;-68
2023/03/18 01:31:12;;;;;;;9.53;5.20;;;;;;;;;;5037336;28;20180;-68
2023/03/18 01:33:39;;;;;;;8.13;5.43;;;;;;;;;;5035960;28;20263;-68
2023/03/18 01:36:04;;;;;;;7.57;5.50;;;;;;;;;;5035387;28;20631;-68
2023/03/18 01:38:30;;;;;;;9.87;5.00;;;;;;;;;;5033106;28;20482;-68
2023/03/18 01:40:55;;;;;;;6.90;4.60;;;;;;;;;;5034710;28;20547;-68
2023/03/18 01:43:29;;;;;;;7.47;4.93;;;;;;;;;;5028602;28;20180;-68
2023/03/18 01:45:57;;;;;;;7.53;4.47;;;;;;;;;;5023994;28;20200;-69
2023/03/18 01:48:24;;;;;;;6.90;4.80;;;;;;;;;;5027503;28;20470;-68
2023/03/18 01:50:52;;;;;;;6.80;5.00;;;;;;;;;;5033062;28;20442;-68
2023/03/18 01:53:19;;;;;;;7.50;4.20;;;;;;;;;;5028304;28;20457;-68
2023/03/18 01:55:46;;;;;;;6.83;4.80;;;;;;;;;;5031566;28;20881;-68
2023/03/18 01:58:14;;;;;;;9.10;5.43;;;;;;;;;;5032317;28;21010;-68
2023/03/18 02:00:43;;;;;;;8.23;5.13;;;;;;;;;;5030342;28;20948;-68
2023/03/18 02:03:09;;;;;;;7.80;5.00;;;;;;;;;;5034714;28;20493;-68
2023/03/18 02:05:34;;;;;;;9.67;4.90;;;;;;;;;;5039070;28;20419;-68
2023/03/18 02:08:00;;;;;;;16.50;5.63;;;;;;;;;;5047676;28;20242;-68
2023/03/18 02:10:28;;;;;;;8.80;5.20;;;;;;;;;;5038784;28;20182;-68
2023/03/18 02:12:57;;;;;;;6.60;4.40;;;;;;;;;;5034947;28;20183;-68
2023/03/18 02:15:23;;;;;;;11.43;5.10;;;;;;;;;;5037411;28;20410;-68
2023/03/18 02:17:52;;;;;;;10.80;4.60;;;;;;;;;;5032627;28;20454;-68
2023/03/18 02:20:21;;;;;;;8.00;5.30;;;;;;;;;;5039203;28;20454;-68
2023/03/18 02:22:49;;;;;;;5.90;4.77;;;;;;;;;;5038900;28;20423;-68
2023/03/18 02:25:20;;;;;;;12.83;5.90;;;;;;;;;;5039250;28;20411;-68
2023/03/18 02:27:55;;;;;;;11.03;5.67;;;;;;;;;;5037130;28;20562;-68
2023/03/18 02:30:24;;;;;;;8.93;4.90;;;;;;;;;;5030362;28;20979;-68
2023/03/18 02:32:50;;;;;;;9.30;6.20;;;;;;;;;;5028976;28;20442;-68
2023/03/18 02:35:15;;;;;;;13.50;5.60;;;;;;;;;;5032210;28;20450;-68
2023/03/18 02:37:41;;;;;;;12.60;5.40;;;;;;;;;;5025203;28;20271;-68
2023/03/18 02:40:24;;;;;;;9.30;5.57;;;;;;;;;;5027910;28;21183;-68
2023/03/18 02:42:50;;;;;;;9.27;5.90;;;;;;;;;;5025991;28;20661;-68
2023/03/18 02:45:24;;;;;;;7.40;5.70;;;;;;;;;;5032913;28;20581;-68
2023/03/18 02:47:50;;;;;;;10.63;6.20;;;;;;;;;;5030827;28;20215;-68
2023/03/18 02:50:16;;;;;;;9.40;6.73;;;;;;;;;;5027013;28;20438;-68
2023/03/18 02:52:42;;;;;;;8.10;6.40;;;;;;;;;;5023672;28;20439;-68
2023/03/18 02:55:08;;;;;;;7.37;6.20;;;;;;;;;;5028600;28;20237;-68
2023/03/18 02:57:33;;;;;;;7.83;6.67;;;;;;;;;;5026602;28;20313;-68
2023/03/18 02:59:58;;;;;;;12.27;7.53;;;;;;;;;;5031320;28;20179;-68
2023/03/18 03:02:23;;;;;;;8.97;7.70;;;;;;;;;;5031189;28;20637;-68
2023/03/18 03:04:49;;;;;;;9.57;7.43;;;;;;;;;;5027064;28;20192;-68
2023/03/18 03:07:14;;;;;;;12.70;8.00;;;;;;;;;;5028889;28;20262;-68
2023/03/18 03:09:41;;;;;;;12.80;8.63;;;;;;;;;;5024588;28;20242;-68
2023/03/18 03:12:06;;;;;;;13.70;9.80;;;;;;;;;;5027568;28;20180;-68
2023/03/18 03:14:31;;;;;;;12.50;9.23;;;;;;;;;;5032636;28;20437;-68
2023/03/18 03:16:57;;;;;;;12.33;9.87;;;;;;;;;;5024576;28;20210;-68
2023/03/18 03:19:22;;;;;;;12.97;10.00;;;;;;;;;;5026745;28;20254;-68
2023/03/18 03:21:48;;;;;;;16.20;11.37;;;;;;;;;;5028765;28;20192;-68
2023/03/18 03:24:13;;;;;;;13.67;10.47;;;;;;;;;;5029314;28;20191;-68
2023/03/18 03:26:39;;;;;;;15.40;9.73;;;;;;;;;;5028624;28;20354;-68
2023/03/18 03:29:04;;;;;;;14.10;11.33;;;;;;;;;;5045250;28;20175;-68
2023/03/18 03:31:29;;;;;;;13.03;11.60;;;;;;;;;;5031621;28;20172;-69
2023/03/18 03:33:55;;;;;;;15.53;11.90;;;;;;;;;;5026527;28;20184;-68
2023/03/18 03:36:20;;;;;;;14.40;11.47;;;;;;;;;;5028173;28;20201;-68
2023/03/18 03:38:46;;;;;;;15.10;12.30;;;;;;;;;;5024202;28;20193;-68
2023/03/18 03:41:12;;;;;;;14.10;11.40;;;;;;;;;;5027074;28;20267;-68
2023/03/18 03:43:37;;;;;;;13.90;11.80;;;;;;;;;;5022659;28;20180;-68
2023/03/18 03:46:03;;;;;;;15.60;13.37;;;;;;;;;;5025391;28;20191;-68
2023/03/18 03:48:28;;;;;;;14.13;12.63;;;;;;;;;;5024384;28;20243;-68
2023/03/18 03:50:55;;;;;;;17.17;12.90;;;;;;;;;;5027050;28;20671;-68
2023/03/18 03:53:21;;;;;;;17.37;13.30;;;;;;;;;;5027238;28;20706;-68
2023/03/18 03:55:46;;;;;;;20.83;14.30;;;;;;;;;;5025463;28;20517;-68
2023/03/18 03:58:12;;;;;;;19.70;15.03;;;;;;;;;;5029268;28;20257;-68
2023/03/18 04:00:38;;;;;;;18.77;14.33;;;;;;;;;;5028161;28;20180;-67
2023/03/18 04:03:03;;;;;;;18.27;15.50;;;;;;;;;;5025715;28;20435;-68
2023/03/18 04:05:29;;;;;;;16.60;14.33;;;;;;;;;;5025138;28;20180;-68
2023/03/18 04:07:58;;;;;;;19.23;14.00;;;;;;;;;;5019536;28;20346;-68
2023/03/18 04:10:25;;;;;;;15.57;12.23;;;;;;;;;;5032358;28;20192;-68
2023/03/18 04:12:50;;;;;;;16.90;14.00;;;;;;;;;;5030802;28;20434;-68
2023/03/18 04:15:17;;;;;;;16.97;14.40;;;;;;;;;;5031075;28;20426;-68
2023/03/18 04:17:43;;;;;;;18.83;14.07;;;;;;;;;;5031723;28;20223;-68
2023/03/18 04:20:09;;;;;;;15.70;14.00;;;;;;;;;;5034383;28;20450;-68
2023/03/18 04:22:35;;;;;;;15.93;14.07;;;;;;;;;;5034573;28;20572;-68
2023/03/18 04:25:00;;;;;;;17.57;15.50;;;;;;;;;;5035505;28;20656;-68
2023/03/18 04:27:26;;;;;;;20.17;16.17;;;;;;;;;;5031114;28;20580;-68
2023/03/18 04:29:52;;;;;;;22.10;15.10;;;;;;;;;;5032108;28;20262;-69
2023/03/18 04:32:17;;;;;;;19.77;15.03;;;;;;;;;;5034205;28;20579;-68
2023/03/18 04:34:43;;;;;;;20.47;16.50;;;;;;;;;;5035284;28;20177;-68
2023/03/18 04:37:08;;;;;;;17.13;14.80;;;;;;;;;;5037186;28;20257;-68
2023/03/18 04:39:34;;;;;;;16.23;14.53;;;;;;;;;;5031955;28;20943;-68
2023/03/18 04:42:00;;;;;;;21.33;16.90;;;;;;;;;;5029998;28;20184;-68
2023/03/18 04:44:25;;;;;;;20.37;17.30;;;;;;;;;;5034727;28;20431;-68
2023/03/18 04:46:52;;;;;;;17.67;15.77;;;;;;;;;;5026355;28;20204;-68
2023/03/18 04:49:18;;;;;;;19.30;15.87;;;;;;;;;;5022271;28;20212;-68
2023/03/18 04:51:43;;;;;;;21.23;17.27;;;;;;;;;;5026593;28;20933;-68
2023/03/18 04:54:11;;;;;;;18.60;16.60;;;;;;;;;;5023307;28;20442;-68
2023/03/18 04:56:36;;;;;;;21.53;17.80;;;;;;;;;;5028689;28;20211;-68
2023/03/18 04:59:01;;;;;;;21.10;18.00;;;;;;;;;;5030874;28;20450;-68
2023/03/18 05:01:27;;;;;;;22.17;17.80;;;;;;;;;;5029900;28;20195;-68
2023/03/18 05:03:52;;;;;;;25.10;18.77;;;;;;;;;;5030875;28;20318;-68
2023/03/18 05:06:22;;;;;;;22.27;17.83;;;;;;;;;;5021879;28;20224;-68
2023/03/18 05:08:47;;;;;;;22.67;19.17;;;;;;;;;;5037968;28;20549;-68
2023/03/18 05:11:13;;;;;;;21.73;18.60;;;;;;;;;;5028055;28;20415;-68
2023/03/18 05:13:39;;;;;;;21.73;17.40;;;;;;;;;;5023501;28;20215;-68
2023/03/18 05:16:05;;;;;;;21.57;18.27;;;;;;;;;;5020147;28;21189;-68
2023/03/18 05:18:30;;;;;;;22.93;18.57;;;;;;;;;;5030565;28;20893;-68
2023/03/18 05:20:55;;;;;;;21.57;16.50;;;;;;;;;;5029587;28;20215;-68
2023/03/18 05:23:21;;;;;;;24.10;18.10;;;;;;;;;;5030877;28;20192;-68
2023/03/18 05:25:50;;;;;;;23.77;18.77;;;;;;;;;;5028039;28;20187;-68
2023/03/18 05:28:16;;;;;;;19.57;16.43;;;;;;;;;;5023990;28;20208;-68
2023/03/18 05:30:42;;;;;;;24.10;17.47;;;;;;;;;;5027049;28;20430;-68
2023/03/18 05:33:07;;;;;;;26.03;18.37;;;;;;;;;;5027066;28;20439;-68
2023/03/18 05:35:32;;;;;;;19.63;17.20;;;;;;;;;;5024235;28;20591;-68
2023/03/18 05:37:58;;;;;;;23.30;19.00;;;;;;;;;;5019875;28;20588;-68
2023/03/18 05:40:23;;;;;;;22.93;20.40;;;;;;;;;;5028299;28;20215;-68
2023/03/18 05:42:48;;;;;;;24.00;18.33;;;;;;;;;;5024109;28;20228;-68
2023/03/18 05:45:14;;;;;;;20.37;17.80;;;;;;;;;;5023859;28;20271;-68
2023/03/18 05:47:39;;;;;;;23.00;18.40;;;;;;;;;;5020244;28;20265;-68
2023/03/18 05:50:05;;;;;;;25.10;17.83;;;;;;;;;;5029253;28;20515;-68
2023/03/18 05:52:30;;;;;;;23.57;19.83;;;;;;;;;;5032763;28;20187;-68
2023/03/18 05:54:56;;;;;;;23.03;20.07;;;;;;;;;;5028441;28;20231;-68
2023/03/18 05:57:21;;;;;;;23.33;18.83;;;;;;;;;;5028827;28;20204;-68
2023/03/18 05:59:47;;;;;;;21.60;18.93;;;;;;;;;;5039341;28;20315;-68
2023/03/18 06:02:12;;;;;;;22.47;18.07;;;;;;;;;;5032713;28;20226;-68
2023/03/18 06:04:39;;;;;;;20.90;17.63;;;;;;;;;;5034614;28;20638;-68
2023/03/18 06:07:04;;;;;;;26.27;19.27;;;;;;;;;;5014946;28;20220;-68
2023/03/18 06:09:32;;;;;;;24.27;18.67;;;;;;;;;;5029877;28;20481;-68
2023/03/18 06:11:57;;;;;;;24.50;18.87;;;;;;;;;;5034038;28;20974;-68
2023/03/18 06:14:28;;;;;;;24.80;17.67;;;;;;;;;;5035122;28;20433;-68
2023/03/18 06:16:53;;;;;;;22.03;18.17;;;;;;;;;;5030927;28;20212;-68
2023/03/18 06:19:18;;;;;;;23.43;16.87;;;;;;;;;;5033441;28;20487;-68
2023/03/18 06:21:43;;;;;;;19.27;17.20;;;;;;;;;;5035520;28;20561;-68
2023/03/18 06:24:09;;;;;;;23.93;18.37;;;;;;;;;;5035899;28;20192;-68
2023/03/18 06:26:35;;;;;;;21.33;16.90;;;;;;;;;;5032671;28;20222;-68
2023/03/18 06:29:00;;;;;;;20.37;18.10;;;;;;;;;;5046372;28;20183;-68
2023/03/18 06:31:26;;;;;;;21.07;18.93;;;;;;;;;;5031793;28;20188;-68
2023/03/18 06:33:52;;;;;;;21.93;17.13;;;;;;;;;;5031748;22;20320;-81
2023/03/18 06:36:18;;;;;;;22.83;17.37;;;;;;;;;;5002732;28;20189;-79
2023/03/18 06:38:43;;;;;;;19.63;17.60;;;;;;;;;;4997749;28;20441;-79
2023/03/18 06:41:10;;;;;;;22.90;18.90;;;;;;;;;;4997694;28;20440;-79
2023/03/18 06:43:35;;;;;;;21.80;17.80;;;;;;;;;;4994747;28;20714;-79
2023/03/18 06:46:00;;;;;;;24.10;18.50;;;;;;;;;;4996411;28;20465;-79
2023/03/18 06:48:27;;;;;;;18.97;16.23;;;;;;;;;;4994800;28;20212;-80
2023/03/18 06:50:53;;;;;;;23.17;18.00;;;;;;;;;;4999415;28;20185;-79
2023/03/18 06:53:18;;;;;;;19.93;17.80;;;;;;;;;;5000810;28;20448;-79
2023/03/18 06:55:43;;;;;;;19.93;17.60;;;;;;;;;;4995860;28;21147;-79
2023/03/18 06:58:09;;;;;;;20.23;17.13;;;;;;;;;;4997316;28;20278;-79
2023/03/18 07:00:35;;;;;;;18.97;16.90;;;;;;;;;;4997618;28;20189;-79
2023/03/18 07:03:00;;;;;;;21.07;17.13;;;;;;;;;;4996872;28;20260;-79
2023/03/18 07:05:25;;;;;;;20.53;16.90;;;;;;;;;;4996520;28;20183;-79
2023/03/18 07:07:51;;;;;;;23.93;17.33;;;;;;;;;;4998336;28;20336;-79
2023/03/18 07:10:18;;;;;;;23.80;18.20;;;;;;;;;;4995971;28;20185;-80
2023/03/18 07:12:43;;;;;;;21.17;18.10;;;;;;;;;;4997789;28;20196;-79
2023/03/18 07:15:10;;;;;;;23.20;18.50;;;;;;;;;;4997915;28;20424;-79
2023/03/18 07:17:36;;;;;;;21.03;16.50;;;;;;;;;;4995823;28;20268;-80
2023/03/18 07:20:04;;;;;;;18.30;16.27;;;;;;;;;;5001006;28;20436;-79
2023/03/18 07:22:29;;;;;;;28.80;17.10;;;;;;;;;;4998495;28;20475;-79
2023/03/18 07:24:54;;;;;;;20.60;17.73;;;;;;;;;;4995817;28;20955;-79
2023/03/18 07:27:20;;;;;;;21.70;17.37;;;;;;;;;;4994191;28;20213;-79
2023/03/18 07:29:46;;;;;;;21.03;16.50;;;;;;;;;;4995328;28;20192;-79
2023/03/18 07:32:11;;;;;;;21.20;17.23;;;;;;;;;;4991617;28;20216;-79
2023/03/18 07:34:36;;;;;;;23.00;18.17;;;;;;;;;;4993967;28;20224;-79
2023/03/18 07:37:02;;;;;;;22.20;17.93;;;;;;;;;;4994252;28;20189;-80
2023/03/18 07:39:28;;;;;;;23.57;19.40;;;;;;;;;;4999258;28;20196;-79
2023/03/18 07:41:53;;;;;;;22.30;18.00;;;;;;;;;;4997249;28;20436;-79
2023/03/18 07:44:18;;;;;;;25.20;18.23;;;;;;;;;;5000498;28;20694;-79
2023/03/18 07:46:44;;;;;;;23.93;19.87;;;;;;;;;;4994981;28;20215;-79
2023/03/18 07:49:09;;;;;;;22.23;19.20;;;;;;;;;;4990942;28;20190;-80
2023/03/18 07:51:35;;;;;;;26.87;19.50;;;;;;;;;;4998076;28;20324;-80
2023/03/18 07:54:00;;;;;;;23.60;20.10;;;;;;;;;;4994618;28;20193;-79
2023/03/18 07:56:26;;;;;;;27.47;19.57;;;;;;;;;;4987627;28;20182;-79
2023/03/18 07:58:51;;;;;;;23.20;19.67;;;;;;;;;;4989605;28;20271;-80
2023/03/18 08:01:18;;;;;;;29.50;20.37;;;;;;;;;;4994230;28;20186;-80
2023/03/18 08:03:43;;;;;;;29.70;20.10;;;;;;;;;;4988405;28;20201;-80
2023/03/18 08:06:10;;;;;;;26.10;22.37;;;;;;;;;;4989256;28;20435;-79
2023/03/18 08:08:35;;;;;;;27.57;22.20;;;;;;;;;;4991270;28;20531;-79
2023/03/18 08:11:01;;;;;;;29.47;21.97;;;;;;;;;;4993636;28;20436;-80
2023/03/18 08:13:27;;;;;;;23.00;20.47;;;;;;;;;;4998629;28;20208;-80
2023/03/18 08:15:53;;;;;;;27.57;22.30;;;;;;;;;;4998065;28;20321;-79
2023/03/18 08:18:18;;;;;;;26.00;22.30;;;;;;;;;;4998984;28;20510;-79
2023/03/18 08:20:43;;;;;;;26.53;22.90;;;;;;;;;;5001015;28;20194;-79
2023/03/18 08:23:09;;;;;;;26.87;22.47;;;;;;;;;;4987671;28;20304;-80
2023/03/18 08:25:34;;;;;;;22.17;19.60;;;;;;;;;;4993165;28;20192;-80
2023/03/18 08:28:00;;;;;;;25.80;21.97;;;;;;;;;;4996954;28;20460;-80
2023/03/18 08:30:27;;;;;;;25.27;20.27;;;;;;;;;;4999536;28;20209;-80
2023/03/18 08:32:53;;;;;;;28.00;21.63;;;;;;;;;;4994851;28;20192;-79
2023/03/18 08:35:18;;;;;;;26.83;20.73;;;;;;;;;;4993440;28;20432;-79
2023/03/18 08:37:44;;;;;;;27.17;21.20;;;;;;;;;;4999264;28;20185;-79
2023/03/18 08:40:10;;;;;;;21.00;18.30;;;;;;;;;;5001220;28;20180;-79
2023/03/18 08:42:35;;;;;;;25.83;19.27;;;;;;;;;;5005406;28;20189;-79
2023/03/18 08:45:01;;;;;;;24.40;17.63;;;;;;;;;;5000858;28;20444;-80
2023/03/18 08:47:28;;;;;;;18.33;16.30;;;;;;;;;;4996757;28;20213;-79
2023/03/18 08:49:53;;;;;;;19.03;17.00;;;;;;;;;;4995503;28;20181;-79
2023/03/18 08:52:18;;;;;;;27.67;18.83;;;;;;;;;;4997440;28;20992;-79
2023/03/18 08:54:44;;;;;;;23.03;20.07;;;;;;;;;;5002327;28;20237;-80
2023/03/18 08:57:10;;;;;;;22.97;19.47;;;;;;;;;;5000629;28;20193;-77
2023/03/18 08:59:35;;;;;;;21.73;17.47;;;;;;;;;;4996946;28;20270;-77
2023/03/18 09:02:01;;;;;;;23.40;17.47;;;;;;;;;;5002077;28;20177;-77
2023/03/18 09:04:26;;;;;;;20.27;18.07;;;;;;;;;;5001361;28;20220;-77
2023/03/18 09:06:51;;;;;;;22.33;17.17;;;;;;;;;;5000167;28;20197;-79
2023/03/18 09:09:17;;;;;;;21.70;17.90;;;;;;;;;;4997488;28;20239;-76
2023/03/18 09:11:44;;;;;;;20.63;16.27;;;;;;;;;;4995350;28;20280;-78
2023/03/18 09:14:10;;;;;;;21.50;17.60;;;;;;;;;;5000933;28;20189;-78
2023/03/18 09:16:36;;;;;;;21.60;16.83;;;;;;;;;;5001220;28;21045;-78
2023/03/18 09:19:02;;;;;;;23.23;17.30;;;;;;;;;;5001230;28;20510;-77
2023/03/18 09:21:27;;;;;;;22.90;18.00;;;;;;;;;;4999369;28;20562;-78
2023/03/18 09:23:53;;;;;;;19.23;17.17;;;;;;;;;;4997821;28;20456;-79
2023/03/18 09:26:18;;;;;;;21.97;16.90;;;;;;;;;;4996424;28;20551;-79
2023/03/18 09:28:43;;;;;;;23.70;17.63;;;;;;;;;;4997779;28;20212;-79
2023/03/18 09:31:08;;;;;;;24.20;18.30;;;;;;;;;;4997334;28;20260;-79
2023/03/18 09:33:35;;;;;;;26.13;19.13;;;;;;;;;;4998446;28;20668;-77
2023/03/18 09:36:02;;;;;;;22.40;17.47;;;;;;;;;;4996689;28;20181;-78
2023/03/18 09:38:27;;;;;;;21.60;18.17;;;;;;;;;;4996646;28;20440;-75
2023/03/18 09:40:58;;;;;;;20.37;17.97;;;;;;;;;;4996585;28;20436;-74
2023/03/18 09:43:32;;;;;;;27.30;20.50;;;;;;;;;;4993328;28;20208;-75
2023/03/18 09:46:13;;;;;;;22.83;18.93;;;;;;;;;;5000531;28;20436;-76
2023/03/18 09:48:48;;;;;;;24.70;19.43;;;;;;;;;;4994623;28;20833;-76
2023/03/18 09:51:13;;;;;;;23.37;18.87;;;;;;;;;;4999095;28;20443;-74
2023/03/18 09:53:44;;;;;;;20.03;17.70;;;;;;;;;;4997141;28;20452;-78
2023/03/18 09:56:16;;;;;;;23.97;19.67;;;;;;;;;;4999916;28;20181;-79
2023/03/18 09:58:50;;;;;;;26.10;18.33;;;;;;;;;;4999421;28;20415;-77
2023/03/18 10:01:17;;;;;;;23.40;19.83;;;;;;;;;;4998165;28;20470;-76
2023/03/18 10:03:45;;;;;;;23.20;18.50;;;;;;;;;;4998877;28;20441;-76
2023/03/18 10:06:21;;;;;;;19.33;17.03;;;;;;;;;;5003081;28;20444;-78
2023/03/18 10:09:05;;;;;;;25.83;19.33;;;;;;;;;;4998483;28;20554;-77
2023/03/18 10:11:30;;;;;;;27.30;19.07;;;;;;;;;;5002229;28;20938;-78
2023/03/18 10:13:59;;;;;;;26.37;19.67;;;;;;;;;;4999374;28;20451;-78
2023/03/18 10:16:27;;;;;;;21.50;18.00;;;;;;;;;;5004050;28;20300;-77
2023/03/18 10:18:53;;;;;;;30.60;19.70;;;;;;;;;;4999167;28;20445;-77
2023/03/18 10:21:40;;;;;;;23.10;19.80;;;;;;;;;;4999339;28;20440;-76
2023/03/18 10:24:06;;;;;;;24.20;19.00;;;;;;;;;;5002103;28;20969;-76
2023/03/18 10:26:32;;;;;;;21.90;17.93;;;;;;;;;;4998657;28;20428;-77
2023/03/18 10:29:09;;;;;;;23.97;19.07;;;;;;;;;;4998636;28;20186;-78
2023/03/18 10:31:38;;;;;;;21.00;18.43;;;;;;;;;;4994103;28;20169;-78
2023/03/18 10:34:10;;;;;;;23.20;18.87;;;;;;;;;;4992042;28;20464;-77
2023/03/18 10:36:54;;;;;;;23.50;18.80;;;;;;;;;;4997115;28;20433;-79
2023/03/18 10:39:22;;;;;;;22.73;19.17;;;;;;;;;;4997094;28;22463;-77
2023/03/18 10:41:48;;;;;;;23.30;19.43;;;;;;;;;;4996841;28;20523;-76
2023/03/18 10:44:32;;;;;;;23.30;19.23;;;;;;;;;;5002991;28;20440;-77
2023/03/18 10:47:04;;;;;;;24.30;18.97;;;;;;;;;;4993615;28;20451;-76
2023/03/18 10:49:31;;;;;;;20.40;17.63;;;;;;;;;;4993761;28;20485;-76
2023/03/18 10:52:00;;;;;;;20.60;17.03;;;;;;;;;;5000426;28;20412;-77
2023/03/18 10:54:30;;;;;;;21.97;18.47;;;;;;;;;;5000625;28;20598;-76
2023/03/18 10:56:55;;;;;;;20.00;16.90;;;;;;;;;;4998956;28;20495;-76
2023/03/18 10:59:22;;;;;;;19.20;17.20;;;;;;;;;;5000565;28;21019;-76
2023/03/18 11:01:50;;;;;;;21.20;17.43;;;;;;;;;;5002137;28;20221;-76
2023/03/18 11:04:20;;;;;;;19.90;16.20;;;;;;;;;;5002081;28;20432;-77
2023/03/18 11:06:48;;;;;;;19.47;15.80;;;;;;;;;;5001993;28;20455;-76
2023/03/18 11:09:18;;;;;;;21.57;16.20;;;;;;;;;;5000089;28;21171;-76
2023/03/18 11:11:45;;;;;;;19.53;15.50;;;;;;;;;;5000348;28;21379;-76
2023/03/18 11:14:15;;;;;;;18.47;15.30;;;;;;;;;;5001144;28;20437;-76
2023/03/18 11:16:48;;;;;;;18.10;16.20;;;;;;;;;;4999766;28;20431;-77
2023/03/18 11:19:26;;;;;;;20.93;15.23;;;;;;;;;;5000120;28;20416;-77
2023/03/18 11:22:00;;;;;;;18.70;15.50;;;;;;;;;;5001271;28;21426;-77
2023/03/18 11:24:41;;;;;;;15.90;13.70;;;;;;;;;;5000126;28;20436;-77
2023/03/18 11:27:13;;;;;;;18.87;15.83;;;;;;;;;;5001942;28;20460;-77
2023/03/18 11:29:40;;;;;;;21.10;15.40;;;;;;;;;;5000249;28;20420;-76
2023/03/18 11:32:21;;;;;;;21.40;17.00;;;;;;;;;;5001876;28;20466;-77
2023/03/18 11:34:52;;;;;;;19.13;15.33;;;;;;;;;;5000369;28;20514;-77
2023/03/18 11:37:18;;;;;;;22.33;16.60;;;;;;;;;;5003595;28;20493;-79
2023/03/18 11:39:43;;;;;;;18.30;14.90;;;;;;;;;;5001200;28;21166;-75
2023/03/18 11:42:20;;;;;;;23.10;16.90;;;;;;;;;;5001008;28;20895;-75
2023/03/18 11:44:46;;;;;;;18.10;14.90;;;;;;;;;;5002346;28;20207;-76
2023/03/18 11:47:18;;;;;;;17.40;15.27;;;;;;;;;;5005421;28;20459;-75
2023/03/18 11:49:44;;;;;;;17.30;14.47;;;;;;;;;;5000968;28;20570;-75
2023/03/18 11:52:28;;;;;;;17.80;15.00;;;;;;;;;;5005814;28;20426;-75
2023/03/18 11:55:03;;;;;;;22.63;16.00;;;;;;;;;;4995543;28;20977;-66
2023/03/18 11:57:48;;;;;;;20.90;16.80;;;;;;;;;;4991431;28;20463;-66
2023/03/18 12:00:16;;;;;;;20.43;16.33;;;;;;;;;;5005549;28;20436;-77
2023/03/18 12:03:08;;;;;;;21.07;17.40;;;;;;;;;;4996488;28;20468;-83
2023/03/18 12:05:34;;;;;;;;;;;;;;;;;;5001180;28;20439;-83
2023/03/18 12:08:09;;;;;;;24.30;19.87;;;;;;;;;;4999438;28;20248;-83
2023/03/18 12:10:47;;;;;;;23.30;19.50;;;;;;;;;;4987430;28;20177;-77
2023/03/18 12:13:12;;;;;;;21.10;17.97;;;;;;;;;;4993434;28;20460;-77
2023/03/18 12:15:44;;;;;;;20.30;17.50;;;;;;;;;;4985907;28;20487;-78
2023/03/18 12:18:28;;;;;;;22.43;17.20;;;;;;;;;;4980275;28;20189;-77
2023/03/18 12:20:55;;;;;;;19.60;17.50;;;;;;;;;;4977546;28;20450;-77
2023/03/18 12:23:40;;;;;;;19.27;17.27;;;;;;;;;;4986036;28;20490;-77
2023/03/18 12:26:14;;;;;;;18.40;15.97;;;;;;;;;;4990748;28;20448;-77
2023/03/18 12:28:51;;;;;;;22.73;18.47;;;;;;;;;;4977504;28;20757;-78
2023/03/18 12:31:35;;;;;;;24.40;20.50;;;;;;;;;;4996448;28;20551;-83
2023/03/18 12:34:01;;;;;;;25.67;21.13;;;;;;;;;;4995340;28;20471;-78
2023/03/18 12:36:43;;;;;;;31.23;25.10;;;;;;;;;;4989941;28;20475;-77
2023/03/18 12:39:17;;;;;;;25.33;21.43;;;;;;;;;;4995355;28;20938;-75
2023/03/18 12:42:01;;;;;;;22.33;19.10;;;;;;;;;;5001465;28;20447;-78
2023/03/18 12:44:35;;;;;;;22.10;19.10;;;;;;;;;;5001936;28;20455;-79
2023/03/18 12:47:17;;;;;;;24.13;21.50;;;;;;;;;;5000597;28;20478;-79
2023/03/18 12:49:46;;;;;;;26.13;22.20;;;;;;;;;;5001713;28;20424;-79
2023/03/18 12:52:18;;;;;;;22.90;19.70;;;;;;;;;;5000374;28;20459;-78
2023/03/18 12:54:48;;;;;;;27.43;20.33;;;;;;;;;;4996482;28;20464;-78
2023/03/18 12:57:19;;;;;;;29.47;21.83;;;;;;;;;;5001549;28;20817;-79
2023/03/18 12:59:48;;;;;;;53.50;32.17;;;;;;;;;;4997539;28;21055;-75
2023/03/18 13:02:25;;;;;;;35.93;30.43;;;;;;;;;;4994162;28;20518;-76
2023/03/18 13:04:57;;;;;;;29.70;25.40;;;;;;;;;;5006914;22;20510;-71
2023/03/18 13:07:36;;;;;;;21.50;17.87;;;;;;;;;;5003507;28;20471;-72
2023/03/18 13:10:07;;;;;;;22.27;19.87;;;;;;;;;;5011899;28;20438;-71
2023/03/18 13:12:37;;;;;;;21.30;18.70;;;;;;;;;;5022252;28;20507;-72
2023/03/18 13:15:15;;;;;;;21.47;16.83;;;;;;;;;;5023232;28;20447;-71
2023/03/18 13:17:41;;;;;;;20.13;17.37;;;;;;;;;;5016019;28;20493;-72
2023/03/18 13:20:12;;;;;;;15.77;14.07;;;;;;;;;;5023647;28;21102;-73
2023/03/18 13:22:44;;;;;;;15.60;12.90;;;;;;;;;;5028403;28;20423;-74
2023/03/18 13:25:30;;;;;;;17.27;13.20;;;;;;;;;;5026028;28;20435;-74
2023/03/18 13:28:14;;;;;;;14.83;10.90;;;;;;;;;;4988129;28;20467;-74
2023/03/18 13:30:50;;;;;;;13.00;10.40;;;;;;;;;;5029638;28;20418;-74
2023/03/18 13:33:37;;;;;;;13.90;11.23;;;;;;;;;;5028443;28;20411;-74
2023/03/18 13:36:03;;;;;;;12.20;9.63;;;;;;;;;;5025004;28;20458;-74
2023/03/18 13:38:28;;;;;;;14.73;11.10;;;;;;;;;;5022303;28;20945;-74
2023/03/18 13:41:12;;;;;;;20.77;15.87;;;;;;;;;;5026639;28;20181;-74
2023/03/18 13:43:42;;;;;;;15.37;12.13;;;;;;;;;;5027860;28;20177;-74
2023/03/18 13:46:18;;;;;;;17.53;12.80;;;;;;;;;;5025268;28;20423;-73
2023/03/18 13:48:43;;;;;;;12.90;11.60;;;;;;;;;;5023926;28;20458;-73
2023/03/18 13:51:20;;;;;;;13.40;12.00;;;;;;;;;;5027028;28;20540;-73
2023/03/18 13:53:46;;;;;;;16.27;12.33;;;;;;;;;;5023402;28;20230;-73
2023/03/18 13:56:44;;;;;;;16.67;10.83;;;;;;;;;;5025090;28;20439;-72
2023/03/18 13:59:28;;;;;;;13.10;11.00;;;;;;;;;;4983605;28;20258;-73
2023/03/18 14:01:57;;;;;;;19.47;11.50;;;;;;;;;;5025375;28;20419;-74
2023/03/18 14:04:30;;;;;;;17.53;11.73;;;;;;;;;;5026631;28;20508;-72
2023/03/18 14:07:12;;;;;;;17.10;13.20;;;;;;;;;;5017659;28;20889;-72
2023/03/18 14:09:49;;;;;;;13.17;10.70;;;;;;;;;;5017379;28;21051;-72
2023/03/18 14:12:17;;;;;;;12.23;9.90;;;;;;;;;;5021640;28;20427;-72
2023/03/18 14:15:02;;;;;;;11.87;10.67;;;;;;;;;;5016789;28;20479;-73
2023/03/18 14:17:56;;;;;;;12.53;9.97;;;;;;;;;;5022134;28;20797;-73
2023/03/18 14:20:24;;;;;;;11.00;9.57;;;;;;;;;;5020058;28;20443;-73
2023/03/18 14:23:12;;;;;;;11.57;10.40;;;;;;;;;;5027233;28;20435;-73
2023/03/18 14:25:39;;;;;;;23.27;18.67;;;;;;;;;;5025230;28;20833;-73
2023/03/18 14:28:12;;;;;;;12.97;11.50;;;;;;;;;;5039290;28;20458;-73
2023/03/18 14:30:37;;;;;;;9.97;8.90;;;;;;;;;;5022298;28;20458;-73